createdAt,value
2019-04-20T00:00:02.702Z,63.79
2019-04-20T00:00:58.539Z,63.69
2019-04-20T00:02:03.562Z,64.20
2019-04-20T00:02:59.528Z,63.69
2019-04-20T00:03:56.139Z,64.31
2019-04-20T00:04:55.133Z,64.95
2019-04-20T00:07:46.551Z,64.54
2019-04-20T00:08:51.251Z,64.75
2019-04-20T00:09:56.595Z,64.75
2019-04-20T00:11:02.592Z,64.85
2019-04-20T00:12:00.132Z,65.26
2019-04-20T00:13:03.813Z,64.95
2019-04-20T00:13:59.341Z,64.98
2019-04-20T00:14:56.586Z,65.57
2019-04-20T00:15:49.343Z,65.60
2019-04-20T00:16:53.047Z,65.80
2019-04-20T00:17:58.393Z,66.01
2019-04-20T00:18:54.832Z,66.01
2019-04-20T00:19:53.828Z,66.22
2019-04-20T00:20:51.362Z,66.22
2019-04-20T00:21:59.838Z,66.25
2019-04-20T00:22:54.085Z,66.35
2019-04-20T00:23:51.374Z,66.66
2019-04-20T00:24:55.364Z,66.66
2019-04-20T00:26:00.495Z,66.31
2019-04-20T00:27:15.973Z,66.45
2019-04-20T00:29:25.357Z,66.55
2019-04-20T00:29:36.722Z,66.45
2019-04-20T00:30:39.203Z,66.76
2019-04-20T00:31:29.632Z,66.55
2019-04-20T00:33:56.162Z,66.76
2019-04-20T00:34:26.404Z,66.76
2019-04-20T00:35:18.838Z,67.38
2019-04-20T00:36:18.580Z,67.10
2019-04-20T00:37:21.161Z,67.20
2019-04-20T00:38:21.153Z,67.20
2019-04-20T00:40:37.267Z,67.30
2019-04-20T00:40:43.437Z,67.41
2019-04-20T00:41:49.019Z,66.69
2019-04-20T00:42:48.834Z,66.89
2019-04-20T00:43:47.156Z,66.58
2019-04-20T00:44:44.681Z,66.69
2019-04-20T00:45:47.668Z,66.69
2019-04-20T00:46:56.824Z,66.89
2019-04-20T00:47:54.615Z,67.33
2019-04-20T00:48:50.476Z,67.23
2019-04-20T00:49:52.291Z,67.30
2019-04-20T00:51:00.911Z,67.85
2019-04-20T00:52:11.217Z,68.05
2019-04-20T00:52:54.240Z,67.33
2019-04-20T00:53:47.715Z,68.05
2019-04-20T00:56:09.867Z,68.70
2019-04-20T00:57:20.484Z,68.67
2019-04-20T00:58:23.611Z,68.88
2019-04-20T00:59:20.074Z,68.80
2019-04-20T01:00:26.819Z,68.60
2019-04-20T01:01:31.184Z,68.67
2019-04-20T01:02:20.754Z,68.29
2019-04-20T01:03:30.537Z,68.57
2019-04-20T01:04:25.484Z,68.60
2019-04-20T01:05:23.137Z,68.37
2019-04-20T01:06:28.914Z,68.37
2019-04-20T01:08:38.021Z,68.77
2019-04-20T01:09:13.986Z,68.57
2019-04-20T01:11:39.470Z,68.88
2019-04-20T01:12:12.658Z,68.70
2019-04-20T01:13:19.826Z,68.40
2019-04-20T01:14:12.302Z,68.50
2019-04-20T01:15:23.033Z,68.19
2019-04-20T01:16:22.505Z,68.80
2019-04-20T01:17:11.927Z,68.63
2019-04-20T01:18:13.833Z,69.01
2019-04-20T01:19:11.570Z,69.04
2019-04-20T01:21:38.423Z,69.04
2019-04-20T01:22:14.376Z,69.04
2019-04-20T01:23:15.261Z,68.94
2019-04-20T01:24:20.060Z,68.80
2019-04-20T01:25:18.250Z,68.53
2019-04-20T01:26:15.570Z,69.66
2019-04-20T01:27:25.868Z,69.76
2019-04-20T01:28:31.061Z,70.00
2019-04-20T01:29:21.843Z,70.21
2019-04-20T01:30:21.961Z,70.72
2019-04-20T01:31:18.618Z,70.52
2019-04-20T01:32:27.725Z,70.83
2019-04-20T01:33:25.890Z,70.93
2019-04-20T01:34:27.873Z,70.83
2019-04-20T01:42:34.129Z,70.76
2019-04-20T01:43:33.708Z,70.86
2019-04-20T01:44:35.871Z,71.27
2019-04-20T01:45:35.662Z,71.27
2019-04-20T01:46:32.196Z,71.27
2019-04-20T01:47:38.869Z,71.17
2019-04-20T01:48:38.682Z,70.86
2019-04-20T01:49:40.260Z,71.17
2019-04-20T01:50:36.252Z,71.48
2019-04-20T01:51:42.917Z,71.48
2019-04-20T01:52:44.039Z,71.48
2019-04-20T01:54:21.253Z,71.58
2019-04-20T01:58:50.615Z,72.54
2019-04-20T02:00:21.067Z,72.58
2019-04-20T02:00:37.275Z,72.99
2019-04-20T02:09:03.191Z,73.57
2019-04-20T02:11:32.722Z,74.40
2019-04-20T02:12:31.150Z,74.40
2019-04-20T02:13:40.160Z,74.63
2019-04-20T02:14:35.884Z,74.50
2019-04-20T02:19:52.668Z,75.67
2019-04-20T02:20:58.086Z,75.81
2019-04-20T02:21:55.412Z,75.60
2019-04-20T02:24:12.534Z,75.15
2019-04-20T02:24:47.030Z,75.05
2019-04-20T02:25:35.676Z,74.71
2019-04-20T02:26:36.662Z,74.29
2019-04-20T02:30:04.455Z,74.91
2019-04-20T02:31:59.439Z,74.19
2019-04-20T02:33:27.479Z,74.19
2019-04-20T02:34:23.816Z,74.08
2019-04-20T02:35:18.289Z,74.60
2019-04-20T02:36:33.687Z,74.08
2019-04-20T02:38:36.510Z,74.12
2019-04-20T02:39:32.943Z,74.19
2019-04-20T02:40:19.196Z,74.43
2019-04-20T02:41:21.466Z,74.91
2019-04-20T02:44:23.940Z,74.33
2019-04-20T02:45:27.695Z,74.74
2019-04-20T02:46:26.535Z,75.57
2019-04-20T02:47:21.552Z,75.36
2019-04-20T02:48:15.904Z,75.26
2019-04-20T02:51:22.915Z,75.05
2019-04-20T02:52:50.596Z,75.46
2019-04-20T02:55:26.890Z,75.05
2019-04-20T02:56:44.625Z,75.39
2019-04-20T02:58:34.706Z,74.95
2019-04-20T02:59:53.348Z,74.63
2019-04-20T03:00:24.054Z,75.05
2019-04-20T03:01:20.483Z,74.43
2019-04-20T03:02:17.319Z,74.84
2019-04-20T03:03:11.051Z,75.09
2019-04-20T03:04:03.446Z,74.95
2019-04-20T03:05:12.192Z,75.09
2019-04-20T03:06:14.773Z,75.29
2019-04-20T03:07:15.270Z,75.26
2019-04-20T03:08:17.639Z,75.29
2019-04-20T03:09:24.308Z,75.19
2019-04-20T03:10:17.963Z,75.29
2019-04-20T03:11:21.097Z,74.98
2019-04-20T03:12:25.714Z,76.26
2019-04-20T03:13:19.809Z,76.12
2019-04-20T03:14:20.053Z,76.53
2019-04-20T03:15:22.599Z,76.46
2019-04-20T03:16:22.130Z,76.32
2019-04-20T03:17:26.057Z,76.56
2019-04-20T03:18:21.349Z,77.50
2019-04-20T03:19:17.357Z,77.01
2019-04-20T03:20:24.191Z,77.08
2019-04-20T03:21:24.744Z,77.01
2019-04-20T03:22:21.346Z,77.74
2019-04-20T03:23:29.717Z,77.43
2019-04-20T03:25:30.061Z,78.05
2019-04-20T03:26:27.751Z,77.53
2019-04-20T03:27:16.137Z,77.12
2019-04-20T03:28:18.229Z,77.43
2019-04-20T03:29:12.801Z,77.19
2019-04-20T03:33:35.123Z,77.29
2019-04-20T03:34:51.544Z,77.56
2019-04-20T03:35:25.051Z,76.87
2019-04-20T03:36:25.200Z,76.53
2019-04-20T03:37:26.952Z,76.12
2019-04-20T03:38:23.092Z,75.81
2019-04-20T03:39:17.640Z,75.70
2019-04-20T03:40:12.558Z,75.70
2019-04-20T03:41:18.308Z,74.91
2019-04-20T03:42:00.441Z,75.95
2019-04-20T03:42:59.094Z,76.12
2019-04-20T03:44:04.108Z,75.74
2019-04-20T03:45:06.088Z,76.15
2019-04-20T03:46:05.583Z,75.95
2019-04-20T03:47:04.566Z,76.05
2019-04-20T03:48:16.092Z,76.15
2019-04-20T03:50:22.440Z,76.15
2019-04-20T03:51:26.001Z,76.36
2019-04-20T03:52:24.159Z,76.09
2019-04-20T03:53:19.542Z,75.98
2019-04-20T03:54:13.790Z,77.22
2019-04-20T03:55:16.118Z,77.22
2019-04-20T03:56:22.774Z,77.43
2019-04-20T03:57:22.373Z,77.56
2019-04-20T03:58:18.528Z,77.87
2019-04-20T03:59:11.318Z,78.56
2019-04-20T04:00:16.284Z,77.47
2019-04-20T04:01:19.882Z,78.08
2019-04-20T04:02:29.715Z,78.19
2019-04-20T04:03:29.300Z,78.91
2019-04-20T04:04:21.497Z,78.22
2019-04-20T04:05:17.690Z,78.50
2019-04-20T04:06:11.814Z,78.60
2019-04-20T04:07:01.852Z,78.64
2019-04-20T04:08:10.557Z,78.43
2019-04-20T04:09:12.223Z,77.87
2019-04-20T04:10:14.002Z,77.77
2019-04-20T04:11:16.235Z,78.39
2019-04-20T04:12:08.911Z,77.67
2019-04-20T04:12:58.940Z,77.47
2019-04-20T04:13:56.714Z,77.29
2019-04-20T04:14:57.930Z,77.67
2019-04-20T04:16:03.304Z,77.47
2019-04-20T04:17:01.271Z,77.26
2019-04-20T04:18:04.533Z,77.26
2019-04-20T04:19:06.155Z,77.50
2019-04-20T04:20:05.076Z,77.81
2019-04-20T04:21:03.901Z,78.60
2019-04-20T04:22:12.268Z,78.39
2019-04-20T04:24:10.696Z,77.87
2019-04-20T04:25:14.916Z,77.87
2019-04-20T04:26:18.731Z,77.33
2019-04-20T04:27:16.208Z,77.12
2019-04-20T04:28:14.253Z,77.53
2019-04-20T04:29:21.384Z,76.81
2019-04-20T04:30:14.445Z,76.18
2019-04-20T04:31:16.401Z,76.18
2019-04-20T04:32:37.553Z,75.84
2019-04-20T04:33:44.555Z,75.84
2019-04-20T04:34:17.393Z,76.05
2019-04-20T04:35:15.847Z,75.74
2019-04-20T04:36:13.823Z,74.57
2019-04-20T04:37:17.238Z,75.39
2019-04-20T04:38:23.674Z,75.39
2019-04-20T04:39:21.208Z,74.98
2019-04-20T04:40:27.813Z,74.22
2019-04-20T04:41:32.316Z,73.88
2019-04-20T04:42:22.318Z,72.30
2019-04-20T04:43:20.554Z,71.55
2019-04-20T04:44:11.229Z,70.34
2019-04-20T04:45:04.885Z,69.07
2019-04-20T04:45:59.529Z,68.43
2019-04-20T04:47:02.775Z,67.23
2019-04-20T04:47:59.587Z,65.77
2019-04-20T04:49:06.829Z,65.01
2019-04-20T04:50:07.458Z,64.67
2019-04-20T04:51:03.407Z,64.03
2019-04-20T04:52:05.623Z,62.02
2019-04-20T04:53:07.344Z,60.89
2019-04-20T04:54:10.185Z,60.69
2019-04-20T04:55:16.168Z,60.38
2019-04-20T04:56:05.806Z,60.05
2019-04-20T04:56:58.675Z,60.22
2019-04-20T04:57:56.422Z,58.63
2019-04-20T04:58:56.407Z,57.71
2019-04-20T04:59:57.316Z,58.17
2019-04-20T05:01:01.360Z,56.10
2019-04-20T05:01:59.780Z,55.38
2019-04-20T05:03:01.112Z,55.58
2019-04-20T05:04:22.751Z,54.97
2019-04-20T05:05:17.398Z,54.67
2019-04-20T05:06:12.405Z,54.64
2019-04-20T05:07:11.693Z,54.74
2019-04-20T05:08:07.578Z,53.47
2019-04-20T05:09:03.171Z,53.88
2019-04-20T05:09:59.107Z,52.12
2019-04-20T05:10:56.364Z,54.82
2019-04-20T05:12:03.973Z,52.43
2019-04-20T05:12:58.837Z,50.57
2019-04-20T05:14:02.056Z,49.17
2019-04-20T05:15:07.582Z,50.21
2019-04-20T05:16:14.698Z,50.82
2019-04-20T05:17:12.680Z,49.86
2019-04-20T05:18:20.852Z,49.25
2019-04-20T05:19:19.354Z,50.04
2019-04-20T05:20:18.136Z,47.78
2019-04-20T05:21:15.415Z,48.61
2019-04-20T05:22:19.362Z,49.20
2019-04-20T05:23:12.977Z,49.28
2019-04-20T05:24:15.324Z,48.02
2019-04-20T05:25:20.373Z,46.19
2019-04-20T05:26:19.671Z,46.92
2019-04-20T05:27:19.085Z,47.78
2019-04-20T05:28:13.049Z,48.08
2019-04-20T05:29:07.958Z,47.55
2019-04-20T05:29:59.199Z,47.75
2019-04-20T05:30:59.917Z,47.41
2019-04-20T05:32:07.369Z,46.90
2019-04-20T05:33:06.046Z,46.57
2019-04-20T05:34:20.169Z,47.18
2019-04-20T05:35:23.767Z,46.47
2019-04-20T05:36:19.325Z,46.45
2019-04-20T05:37:27.445Z,46.22
2019-04-20T05:38:28.260Z,45.90
2019-04-20T05:39:22.507Z,46.94
2019-04-20T05:40:22.713Z,44.81
2019-04-20T05:41:20.160Z,44.40
2019-04-20T05:42:24.584Z,44.82
2019-04-20T05:43:17.943Z,45.86
2019-04-20T05:44:12.689Z,46.39
2019-04-20T05:45:16.714Z,46.21
2019-04-20T05:46:21.193Z,47.33
2019-04-20T05:47:19.555Z,47.45
2019-04-20T05:48:11.924Z,47.58
2019-04-20T05:49:23.593Z,48.21
2019-04-20T05:50:18.548Z,48.94
2019-04-20T05:51:25.521Z,49.94
2019-04-20T05:52:31.734Z,49.20
2019-04-20T05:53:20.250Z,49.02
2019-04-20T05:54:18.971Z,50.06
2019-04-20T05:55:21.006Z,51.41
2019-04-20T05:56:17.295Z,51.06
2019-04-20T05:57:25.430Z,50.90
2019-04-20T05:58:24.541Z,50.27
2019-04-20T05:59:14.974Z,49.23
2019-04-20T06:00:20.220Z,47.77
2019-04-20T06:01:22.942Z,46.04
2019-04-20T06:02:26.237Z,47.86
2019-04-20T06:04:17.272Z,50.75
2019-04-20T06:05:24.068Z,51.08
2019-04-20T06:06:16.825Z,51.00
2019-04-20T06:07:21.576Z,52.33
2019-04-20T06:08:30.366Z,52.35
2019-04-20T06:09:22.750Z,53.29
2019-04-20T06:10:20.819Z,54.41
2019-04-20T06:11:21.706Z,52.29
2019-04-20T06:12:19.899Z,52.35
2019-04-20T06:13:15.039Z,53.57
2019-04-20T06:14:09.099Z,53.83
2019-04-20T06:15:12.734Z,53.80
2019-04-20T06:16:15.743Z,53.04
2019-04-20T06:17:21.073Z,52.20
2019-04-20T06:18:13.272Z,50.62
2019-04-20T06:19:29.817Z,51.92
2019-04-20T06:20:19.421Z,50.50
2019-04-20T06:21:27.671Z,51.39
2019-04-20T06:22:27.218Z,51.84
2019-04-20T06:23:24.597Z,52.76
2019-04-20T06:24:26.765Z,52.73
2019-04-20T06:26:40.152Z,52.25
2019-04-20T06:27:16.418Z,49.87
2019-04-20T06:28:15.649Z,51.82
2019-04-20T06:29:16.335Z,50.68
2019-04-20T06:30:13.768Z,48.83
2019-04-20T06:31:19.131Z,49.19
2019-04-20T06:32:27.165Z,48.63
2019-04-20T06:33:24.538Z,45.79
2019-04-20T06:35:33.577Z,47.85
2019-04-20T06:36:38.631Z,46.45
2019-04-20T06:37:18.439Z,47.54
2019-04-20T06:38:35.318Z,46.67
2019-04-20T06:39:19.983Z,45.81
2019-04-20T06:40:36.463Z,45.79
2019-04-20T06:41:31.801Z,44.68
2019-04-20T06:42:33.623Z,44.09
2019-04-20T06:43:19.238Z,45.19
2019-04-20T06:44:26.727Z,45.86
2019-04-20T06:45:22.631Z,48.71
2019-04-20T06:46:33.432Z,47.69
2019-04-20T06:47:24.651Z,47.03
2019-04-20T06:48:21.468Z,46.56
2019-04-20T06:49:27.450Z,43.29
2019-04-20T06:50:18.487Z,46.81
2019-04-20T06:51:22.358Z,45.71
2019-04-20T06:52:26.157Z,44.56
2019-04-20T06:53:28.533Z,42.84
2019-04-20T06:54:10.370Z,43.10
2019-04-20T06:55:15.716Z,43.20
2019-04-20T06:56:25.192Z,42.35
2019-04-20T06:57:22.094Z,43.06
2019-04-20T06:58:33.715Z,43.02
2019-04-20T06:59:29.042Z,42.43
2019-04-20T07:00:42.034Z,42.43
2019-04-20T07:01:23.574Z,42.78
2019-04-20T07:02:21.879Z,42.35
2019-04-20T07:03:30.937Z,42.35
2019-04-20T07:05:18.954Z,41.35
2019-04-20T07:06:34.899Z,41.91
2019-04-20T07:07:18.469Z,41.39
2019-04-20T07:08:33.079Z,40.86
2019-04-20T07:09:27.188Z,40.84
2019-04-20T07:11:18.813Z,41.35
2019-04-20T07:12:17.399Z,41.79
2019-04-20T07:13:13.116Z,42.58
2019-04-20T07:14:02.904Z,41.13
2019-04-20T07:15:17.800Z,42.15
2019-04-20T07:16:21.399Z,43.49
2019-04-20T07:17:29.727Z,44.96
2019-04-20T07:18:17.189Z,42.78
2019-04-20T07:19:18.977Z,43.40
2019-04-20T07:20:18.426Z,43.02
2019-04-20T07:21:28.769Z,45.91
2019-04-20T07:22:33.604Z,43.34
2019-04-20T07:23:26.608Z,44.84
2019-04-20T07:24:25.214Z,44.27
2019-04-20T07:25:20.257Z,41.25
2019-04-20T07:26:25.454Z,44.47
2019-04-20T07:27:19.776Z,44.86
2019-04-20T07:28:24.254Z,44.34
2019-04-20T07:29:24.036Z,44.43
2019-04-20T07:30:19.454Z,42.84
2019-04-20T07:31:18.816Z,44.43
2019-04-20T07:32:10.299Z,42.86
2019-04-20T07:33:24.381Z,41.28
2019-04-20T07:34:23.405Z,41.45
2019-04-20T07:35:22.101Z,42.11
2019-04-20T07:36:24.490Z,41.59
2019-04-20T07:37:51.378Z,42.70
2019-04-20T07:39:26.437Z,40.64
2019-04-20T07:40:28.703Z,41.00
2019-04-20T07:41:25.946Z,43.06
2019-04-20T07:42:24.263Z,43.55
2019-04-20T07:43:14.683Z,43.28
2019-04-20T07:44:29.903Z,41.02
2019-04-20T07:46:34.604Z,40.78
2019-04-20T07:47:28.187Z,42.07
2019-04-20T07:48:31.078Z,40.32
2019-04-20T07:49:18.156Z,41.17
2019-04-20T07:50:13.012Z,41.49
2019-04-20T07:51:06.614Z,43.12
2019-04-20T07:51:57.663Z,41.71
2019-04-20T07:53:14.662Z,42.74
2019-04-20T07:54:24.751Z,41.17
2019-04-20T07:55:40.014Z,40.77
2019-04-20T07:56:17.738Z,40.46
2019-04-20T07:57:14.760Z,40.55
2019-04-20T07:58:10.132Z,38.81
2019-04-20T07:59:11.622Z,39.08
2019-04-20T08:00:21.413Z,39.47
2019-04-20T08:01:23.844Z,38.29
2019-04-20T08:02:23.536Z,41.39
2019-04-20T08:03:23.693Z,41.91
2019-04-20T08:04:17.451Z,41.06
2019-04-20T08:05:10.661Z,40.58
2019-04-20T08:06:05.362Z,42.10
2019-04-20T08:07:02.105Z,42.90
2019-04-20T08:08:14.899Z,40.75
2019-04-20T08:09:11.606Z,40.50
2019-04-20T08:10:02.884Z,38.78
2019-04-20T08:11:13.967Z,41.69
2019-04-20T08:12:22.149Z,38.36
2019-04-20T08:13:25.731Z,38.76
2019-04-20T08:14:24.121Z,39.03
2019-04-20T08:15:29.980Z,41.89
2019-04-20T08:16:23.132Z,41.39
2019-04-20T08:17:40.420Z,40.24
2019-04-20T08:18:21.270Z,38.81
2019-04-20T08:19:16.329Z,39.23
2019-04-20T08:20:17.317Z,40.42
2019-04-20T08:21:23.298Z,42.21
2019-04-20T08:22:19.809Z,41.37
2019-04-20T08:23:17.156Z,40.53
2019-04-20T08:24:17.710Z,39.84
2019-04-20T08:25:08.927Z,41.11
2019-04-20T08:26:06.657Z,37.84
2019-04-20T08:27:02.716Z,37.80
2019-04-20T08:27:57.317Z,36.66
2019-04-20T08:29:01.581Z,36.38
2019-04-20T08:30:12.228Z,35.46
2019-04-20T08:31:15.267Z,35.55
2019-04-20T08:32:17.943Z,35.33
2019-04-20T08:33:13.329Z,35.53
2019-04-20T08:34:35.355Z,37.52
2019-04-20T08:35:22.845Z,39.48
2019-04-20T08:36:16.847Z,36.89
2019-04-20T08:37:18.171Z,37.46
2019-04-20T08:40:24.335Z,37.82
2019-04-20T08:41:12.886Z,38.39
2019-04-20T08:42:16.388Z,35.98
2019-04-20T08:43:33.623Z,38.29
2019-04-20T08:44:41.373Z,37.68
2019-04-20T08:45:19.345Z,36.90
2019-04-20T08:46:13.501Z,40.53
2019-04-20T08:47:27.186Z,38.98
2019-04-20T08:48:23.176Z,40.24
2019-04-20T08:49:27.955Z,40.61
2019-04-20T08:50:19.817Z,39.16
2019-04-20T08:51:22.679Z,37.74
2019-04-20T08:52:41.407Z,39.01
2019-04-20T08:53:20.664Z,39.51
2019-04-20T08:54:19.277Z,39.42
2019-04-20T08:55:16.736Z,38.58
2019-04-20T08:56:12.736Z,41.65
2019-04-20T08:57:00.351Z,39.62
2019-04-20T08:57:57.136Z,40.50
2019-04-20T08:58:57.309Z,39.01
2019-04-20T08:59:56.043Z,40.99
2019-04-20T09:01:00.185Z,38.96
2019-04-20T09:01:58.066Z,38.62
2019-04-20T09:03:06.927Z,36.28
2019-04-20T09:04:06.596Z,36.16
2019-04-20T09:05:03.209Z,38.59
2019-04-20T09:06:05.553Z,37.18
2019-04-20T09:07:06.441Z,37.07
2019-04-20T09:08:06.869Z,39.47
2019-04-20T09:09:22.476Z,38.79
2019-04-20T09:10:25.637Z,39.21
2019-04-20T09:11:16.862Z,40.41
2019-04-20T09:12:18.015Z,42.69
2019-04-20T09:13:08.476Z,40.11
2019-04-20T09:14:00.169Z,39.97
2019-04-20T09:14:57.413Z,39.89
2019-04-20T09:15:55.638Z,39.17
2019-04-20T09:16:59.761Z,36.46
2019-04-20T09:18:00.982Z,36.75
2019-04-20T09:19:03.552Z,37.82
2019-04-20T09:20:06.312Z,39.40
2019-04-20T09:21:03.379Z,38.79
2019-04-20T09:22:03.218Z,40.03
2019-04-20T09:23:13.482Z,40.11
2019-04-20T09:24:22.787Z,37.59
2019-04-20T09:25:37.649Z,39.11
2019-04-20T09:26:16.073Z,40.79
2019-04-20T09:27:08.740Z,36.44
2019-04-20T09:28:07.425Z,36.71
2019-04-20T09:29:12.748Z,39.22
2019-04-20T09:30:13.644Z,37.98
2019-04-20T09:31:12.231Z,38.64
2019-04-20T09:32:18.964Z,39.62
2019-04-20T09:33:15.235Z,40.71
2019-04-20T09:34:13.331Z,40.97
2019-04-20T09:35:13.659Z,37.87
2019-04-20T09:36:10.340Z,40.05
2019-04-20T09:37:22.361Z,37.33
2019-04-20T09:38:10.908Z,37.81
2019-04-20T09:39:10.377Z,36.31
2019-04-20T09:40:16.258Z,37.71
2019-04-20T09:41:25.278Z,36.71
2019-04-20T09:42:01.481Z,42.02
2019-04-20T09:42:56.011Z,38.38
2019-04-20T09:43:55.871Z,36.36
2019-04-20T09:44:58.057Z,35.41
2019-04-20T09:46:02.036Z,36.10
2019-04-20T09:46:59.823Z,34.88
2019-04-20T09:47:58.369Z,36.26
2019-04-20T09:49:00.722Z,36.72
2019-04-20T09:50:09.002Z,35.81
2019-04-20T09:51:16.858Z,33.80
2019-04-20T09:52:12.200Z,33.63
2019-04-20T09:53:10.023Z,36.24
2019-04-20T09:54:17.451Z,35.14
2019-04-20T09:55:12.118Z,35.03
2019-04-20T09:56:18.131Z,36.28
2019-04-20T09:57:13.321Z,36.49
2019-04-20T09:58:09.756Z,37.49
2019-04-20T09:59:18.905Z,37.46
2019-04-20T10:00:13.382Z,39.86
2019-04-20T10:01:11.204Z,37.54
2019-04-20T10:02:06.633Z,34.88
2019-04-20T10:02:57.915Z,35.19
2019-04-20T10:03:54.805Z,36.99
2019-04-20T10:04:55.604Z,35.56
2019-04-20T10:05:55.934Z,36.96
2019-04-20T10:06:55.221Z,38.96
2019-04-20T10:07:59.874Z,35.16
2019-04-20T10:09:00.071Z,36.29
2019-04-20T10:09:57.869Z,35.30
2019-04-20T10:10:56.036Z,33.11
2019-04-20T10:11:55.740Z,34.71
2019-04-20T10:12:56.280Z,36.41
2019-04-20T10:13:54.692Z,35.88
2019-04-20T10:14:58.488Z,32.36
2019-04-20T10:15:57.713Z,32.08
2019-04-20T10:16:55.846Z,32.46
2019-04-20T10:17:56.026Z,32.14
2019-04-20T10:18:55.265Z,34.23
2019-04-20T10:19:55.718Z,31.04
2019-04-20T10:20:57.940Z,34.75
2019-04-20T10:21:57.279Z,29.38
2019-04-20T10:22:56.334Z,33.68
2019-04-20T10:23:56.597Z,31.96
2019-04-20T10:24:57.137Z,33.25
2019-04-20T10:25:54.592Z,29.47
2019-04-20T10:26:54.671Z,30.77
2019-04-20T10:27:55.830Z,28.85
2019-04-20T10:28:55.255Z,32.33
2019-04-20T10:29:55.624Z,28.83
2019-04-20T10:30:54.795Z,28.53
2019-04-20T10:31:58.724Z,29.55
2019-04-20T10:32:57.482Z,30.22
2019-04-20T10:33:55.716Z,27.33
2019-04-20T10:34:56.752Z,31.02
2019-04-20T10:35:54.521Z,28.64
2019-04-20T10:36:55.527Z,29.24
2019-04-20T10:37:55.665Z,27.53
2019-04-20T10:38:54.883Z,27.23
2019-04-20T10:39:56.573Z,29.85
2019-04-20T10:41:04.408Z,29.05
2019-04-20T10:42:00.489Z,28.25
2019-04-20T10:42:59.530Z,29.63
2019-04-20T10:43:54.514Z,28.41
2019-04-20T10:44:57.061Z,29.22
2019-04-20T10:45:55.475Z,29.71
2019-04-20T10:46:54.480Z,28.80
2019-04-20T10:47:54.971Z,30.42
2019-04-20T10:48:56.079Z,31.34
2019-04-20T10:49:56.513Z,31.62
2019-04-20T10:50:54.832Z,29.54
2019-04-20T10:51:55.803Z,35.11
2019-04-20T10:52:56.074Z,31.22
2019-04-20T10:53:56.141Z,30.11
2019-04-20T10:54:54.584Z,29.61
2019-04-20T10:55:55.613Z,33.10
2019-04-20T10:56:55.436Z,32.18
2019-04-20T10:57:55.596Z,30.21
2019-04-20T10:58:54.357Z,29.72
2019-04-20T10:59:55.388Z,31.34
2019-04-20T11:00:55.631Z,30.95
2019-04-20T11:01:54.351Z,28.38
2019-04-20T11:02:55.410Z,27.39
2019-04-20T11:03:54.549Z,27.37
2019-04-20T11:04:56.872Z,29.46
2019-04-20T11:05:54.402Z,27.94
2019-04-20T11:06:54.527Z,27.74
2019-04-20T11:07:56.730Z,28.36
2019-04-20T11:08:54.318Z,28.94
2019-04-20T11:10:04.371Z,28.42
2019-04-20T11:11:08.302Z,28.23
2019-04-20T11:11:56.636Z,28.73
2019-04-20T11:12:54.305Z,29.43
2019-04-20T11:13:55.359Z,27.93
2019-04-20T11:14:54.552Z,31.52
2019-04-20T11:15:56.597Z,30.32
2019-04-20T11:16:56.132Z,29.03
2019-04-20T11:17:55.369Z,32.92
2019-04-20T11:18:55.492Z,29.21
2019-04-20T11:19:55.008Z,28.23
2019-04-20T11:20:55.323Z,27.33
2019-04-20T11:21:54.395Z,27.24
2019-04-20T11:22:54.314Z,28.92
2019-04-20T11:23:54.301Z,28.04
2019-04-20T11:24:56.435Z,28.94
2019-04-20T11:25:54.220Z,25.65
2019-04-20T11:26:54.233Z,24.75
2019-04-20T11:27:54.422Z,26.33
2019-04-20T11:28:55.900Z,29.81
2019-04-20T11:29:54.191Z,26.73
2019-04-20T11:30:54.330Z,25.82
2019-04-20T11:31:56.496Z,27.42
2019-04-20T11:32:56.028Z,24.54
2019-04-20T11:33:54.242Z,24.04
2019-04-20T11:34:56.457Z,25.86
2019-04-20T11:35:55.152Z,28.84
2019-04-20T11:36:55.025Z,24.63
2019-04-20T11:37:55.358Z,26.93
2019-04-20T11:38:54.425Z,27.53
2019-04-20T11:39:55.107Z,27.03
2019-04-20T11:41:04.185Z,30.32
2019-04-20T11:41:56.111Z,28.52
2019-04-20T11:42:55.290Z,28.73
2019-04-20T11:43:54.096Z,27.63
2019-04-20T11:44:54.904Z,29.64
2019-04-20T11:45:54.483Z,26.93
2019-04-20T11:46:55.078Z,26.94
2019-04-20T11:47:54.084Z,27.86
2019-04-20T11:48:55.321Z,30.55
2019-04-20T11:49:55.395Z,28.34
2019-04-20T11:50:54.027Z,27.64
2019-04-20T11:51:55.332Z,28.74
2019-04-20T11:52:55.198Z,29.24
2019-04-20T11:53:54.388Z,28.74
2019-04-20T11:54:54.999Z,29.44
2019-04-20T11:55:54.219Z,27.33
2019-04-20T11:56:55.363Z,28.84
2019-04-20T11:57:54.214Z,27.56
2019-04-20T11:58:54.996Z,28.14
2019-04-20T11:59:55.001Z,27.64
2019-04-20T12:01:03.193Z,27.66
2019-04-20T12:02:01.051Z,27.06
2019-04-20T12:02:58.641Z,27.34
2019-04-20T12:04:04.147Z,27.56
2019-04-20T12:05:08.835Z,28.57
2019-04-20T12:05:59.397Z,31.62
2019-04-20T12:06:57.064Z,29.13
2019-04-20T12:07:55.436Z,28.12
2019-04-20T12:08:54.990Z,27.64
2019-04-20T12:09:58.545Z,28.64
2019-04-20T12:10:59.850Z,28.33
2019-04-20T12:12:08.243Z,28.92
2019-04-20T12:12:56.251Z,27.33
2019-04-20T12:13:54.913Z,27.64
2019-04-20T12:14:54.782Z,30.44
2019-04-20T12:15:53.994Z,27.53
2019-04-20T12:16:55.471Z,27.04
2019-04-20T12:17:53.938Z,28.75
2019-04-20T12:18:54.657Z,27.45
2019-04-20T12:19:53.856Z,27.95
2019-04-20T12:20:54.834Z,27.64
2019-04-20T12:21:53.944Z,28.96
2019-04-20T12:22:54.872Z,31.12
2019-04-20T12:23:54.121Z,28.53
2019-04-20T12:24:56.143Z,27.53
2019-04-20T12:25:54.390Z,26.94
2019-04-20T12:26:54.583Z,27.94
2019-04-20T12:27:57.022Z,28.36
2019-04-20T12:28:55.879Z,29.84
2019-04-20T12:29:54.053Z,29.64
2019-04-20T12:30:58.344Z,28.04
2019-04-20T12:31:59.181Z,28.05
2019-04-20T12:32:59.760Z,28.87
2019-04-20T12:33:54.868Z,27.37
2019-04-20T12:34:56.047Z,28.85
2019-04-20T12:35:54.212Z,26.65
2019-04-20T12:36:55.281Z,27.06
2019-04-20T12:37:54.698Z,28.36
2019-04-20T12:38:54.929Z,27.45
2019-04-20T12:39:55.233Z,28.66
2019-04-20T12:40:53.738Z,27.74
2019-04-20T12:41:58.383Z,31.12
2019-04-20T12:42:57.101Z,27.74
2019-04-20T12:43:56.033Z,27.33
2019-04-20T12:44:53.692Z,29.43
2019-04-20T12:45:53.873Z,25.63
2019-04-20T12:46:55.918Z,26.26
2019-04-20T12:47:53.694Z,29.54
2019-04-20T12:48:53.673Z,26.54
2019-04-20T12:49:53.812Z,27.84
2019-04-20T12:50:55.438Z,28.74
2019-04-20T12:51:58.004Z,27.03
2019-04-20T12:52:56.699Z,26.75
2019-04-20T12:53:54.665Z,29.34
2019-04-20T12:54:54.535Z,29.61
2019-04-20T12:55:54.760Z,27.33
2019-04-20T12:56:53.638Z,28.12
2019-04-20T12:57:54.499Z,27.73
2019-04-20T12:58:53.693Z,27.94
2019-04-20T12:59:54.636Z,28.83
2019-04-20T13:00:54.381Z,27.43
2019-04-20T13:01:53.607Z,27.04
2019-04-20T13:02:53.760Z,27.14
2019-04-20T13:03:55.296Z,27.64
2019-04-20T13:04:53.668Z,26.34
2019-04-20T13:05:54.287Z,25.95
2019-04-20T13:06:55.365Z,27.53
2019-04-20T13:07:58.961Z,25.95
2019-04-20T13:08:58.807Z,27.55
2019-04-20T13:09:56.918Z,30.04
2019-04-20T13:10:54.866Z,25.95
2019-04-20T13:11:59.431Z,26.54
2019-04-20T13:12:56.547Z,28.75
2019-04-20T13:13:54.537Z,30.83
2019-04-20T13:14:53.501Z,27.04
2019-04-20T13:15:56.360Z,27.04
2019-04-20T13:16:55.076Z,30.22
2019-04-20T13:17:54.520Z,26.14
2019-04-20T13:18:53.504Z,27.43
2019-04-20T13:19:53.537Z,26.33
2019-04-20T13:20:56.439Z,27.24
2019-04-20T13:21:54.802Z,27.63
2019-04-20T13:22:55.019Z,25.95
2019-04-20T13:23:53.482Z,27.04
2019-04-20T13:24:54.840Z,25.24
2019-04-20T13:25:53.445Z,27.13
2019-04-20T13:26:53.438Z,26.33
2019-04-20T13:27:54.700Z,29.81
2019-04-20T13:28:53.443Z,29.63
2019-04-20T13:29:54.543Z,29.63
2019-04-20T13:30:53.644Z,27.81
2019-04-20T13:31:56.308Z,27.53
2019-04-20T13:32:54.425Z,28.74
2019-04-20T13:33:53.418Z,26.96
2019-04-20T13:34:54.151Z,28.75
2019-04-20T13:35:54.368Z,29.44
2019-04-20T13:36:53.395Z,28.54
2019-04-20T13:37:54.137Z,26.54
2019-04-20T13:38:54.312Z,26.54
2019-04-20T13:39:53.356Z,26.94
2019-04-20T13:40:53.667Z,27.55
2019-04-20T13:42:03.454Z,27.44
2019-04-20T13:42:55.960Z,26.83
2019-04-20T13:43:56.122Z,26.34
2019-04-20T13:44:54.944Z,25.45
2019-04-20T13:45:53.344Z,26.16
2019-04-20T13:46:54.672Z,27.66
2019-04-20T13:47:53.337Z,27.84
2019-04-20T13:48:53.351Z,27.53
2019-04-20T13:49:54.595Z,28.34
2019-04-20T13:50:53.963Z,27.44
2019-04-20T13:51:53.296Z,27.14